createdAt,value
2023-04-17T00:00:36.306Z,22.36
2023-04-17T00:01:36.344Z,22.36
2023-04-17T00:02:36.455Z,22.36
2023-04-17T00:03:36.631Z,22.35
2023-04-17T00:04:36.609Z,22.36
2023-04-17T00:05:36.554Z,22.36
2023-04-17T00:06:36.570Z,22.35
2023-04-17T00:07:36.634Z,22.36
2023-04-17T00:08:36.692Z,22.36
2023-04-17T00:09:36.754Z,22.36
2023-04-17T00:10:36.793Z,22.36
2023-04-17T00:11:36.806Z,22.35
2023-04-17T00:12:36.878Z,22.35
2023-04-17T00:13:36.942Z,22.35
2023-04-17T00:14:36.975Z,22.35
2023-04-17T00:15:37.074Z,22.34
2023-04-17T00:16:37.156Z,22.35
2023-04-17T00:17:37.191Z,22.35
2023-04-17T00:18:37.234Z,22.35
2023-04-17T00:19:37.293Z,22.34
2023-04-17T00:20:37.328Z,22.34
2023-04-17T00:21:37.400Z,22.34
2023-04-17T00:22:37.447Z,22.34
2023-04-17T00:23:37.494Z,22.34
2023-04-17T00:24:37.577Z,22.34
2023-04-17T00:25:37.617Z,22.34
2023-04-17T00:26:37.674Z,22.34
2023-04-17T00:27:37.727Z,22.34
2023-04-17T00:28:37.780Z,22.34
2023-04-17T00:29:37.878Z,22.34
2023-04-17T00:30:37.907Z,22.33
2023-04-17T00:31:38.016Z,22.33
2023-04-17T00:32:38.086Z,22.33
2023-04-17T00:33:38.070Z,22.33
2023-04-17T00:34:38.163Z,22.33
2023-04-17T00:35:38.191Z,22.34
2023-04-17T00:36:38.869Z,22.34
2023-04-17T00:37:38.313Z,22.33
2023-04-17T00:38:38.331Z,22.34
2023-04-17T00:39:38.399Z,22.33
2023-04-17T00:40:38.472Z,22.34
2023-04-17T00:41:38.551Z,22.33
2023-04-17T00:42:38.587Z,22.34
2023-04-17T00:43:38.630Z,22.33
2023-04-17T00:44:38.697Z,22.33
2023-04-17T00:45:38.778Z,22.34
2023-04-17T00:46:38.784Z,22.33
2023-04-17T00:47:38.868Z,22.34
2023-04-17T00:48:38.896Z,22.33
2023-04-17T00:49:38.926Z,22.34
2023-04-17T00:50:39.010Z,22.33
2023-04-17T00:51:39.060Z,22.34
2023-04-17T00:52:39.103Z,22.33
2023-04-17T00:53:39.162Z,22.33
2023-04-17T00:54:39.213Z,22.33
2023-04-17T00:55:39.282Z,22.33
2023-04-17T00:56:39.315Z,22.33
2023-04-17T00:57:39.392Z,22.33
2023-04-17T00:58:39.410Z,22.34
2023-04-17T00:59:39.492Z,22.33
2023-04-17T01:00:39.540Z,22.34
2023-04-17T01:01:39.723Z,22.33
2023-04-17T01:02:39.699Z,22.33
2023-04-17T01:03:39.836Z,22.32
2023-04-17T01:04:39.756Z,22.33
2023-04-17T01:05:39.817Z,22.32
2023-04-17T01:06:39.859Z,22.32
2023-04-17T01:07:39.920Z,22.32
2023-04-17T01:08:39.972Z,22.32
2023-04-17T01:09:40.024Z,22.32
2023-04-17T01:10:40.095Z,22.32
2023-04-17T01:11:40.098Z,22.32
2023-04-17T01:12:40.151Z,22.32
2023-04-17T01:13:40.209Z,22.32
2023-04-17T01:14:40.256Z,22.32
2023-04-17T01:15:40.305Z,22.33
2023-04-17T01:16:40.426Z,22.32
2023-04-17T01:17:40.430Z,22.32
2023-04-17T01:18:40.477Z,22.32
2023-04-17T01:19:40.524Z,22.31
2023-04-17T01:20:40.589Z,22.32
2023-04-17T01:21:40.623Z,22.32
2023-04-17T01:22:40.715Z,22.31
2023-04-17T01:23:40.756Z,22.31
2023-04-17T01:24:40.829Z,22.31
2023-04-17T01:25:40.892Z,22.31
2023-04-17T01:26:40.945Z,22.31
2023-04-17T01:27:40.988Z,22.31
2023-04-17T01:28:41.053Z,22.31
2023-04-17T01:29:41.137Z,22.31
2023-04-17T01:30:41.203Z,22.30
2023-04-17T01:31:41.210Z,22.31
2023-04-17T01:32:41.369Z,22.31
2023-04-17T01:33:41.340Z,22.30
2023-04-17T01:34:41.394Z,22.31
2023-04-17T01:35:41.478Z,22.30
2023-04-17T01:36:41.519Z,22.31
2023-04-17T01:37:41.578Z,22.30
2023-04-17T01:38:41.656Z,22.31
2023-04-17T01:39:41.710Z,22.31
2023-04-17T01:40:41.761Z,22.32
2023-04-17T01:41:41.809Z,22.32
2023-04-17T01:42:41.859Z,22.31
2023-04-17T01:43:41.933Z,22.31
2023-04-17T01:44:41.987Z,22.30
2023-04-17T01:45:42.029Z,22.31
2023-04-17T01:46:42.144Z,22.31
2023-04-17T01:47:42.201Z,22.31
2023-04-17T01:48:42.179Z,22.31
2023-04-17T01:49:42.275Z,22.31
2023-04-17T01:50:42.399Z,22.31
2023-04-17T01:51:42.373Z,22.31
2023-04-17T01:52:42.432Z,22.32
2023-04-17T01:53:42.457Z,22.32
2023-04-17T01:54:42.533Z,22.31
2023-04-17T01:55:42.605Z,22.31
2023-04-17T01:56:42.657Z,22.31
2023-04-17T01:57:42.686Z,22.31
2023-04-17T01:58:42.737Z,22.31
2023-04-17T01:59:42.837Z,22.31
2023-04-17T02:00:42.884Z,22.31
2023-04-17T02:01:42.958Z,22.30
2023-04-17T02:02:43.172Z,22.30
2023-04-17T02:03:43.244Z,22.30
2023-04-17T02:04:43.249Z,22.30
2023-04-17T02:05:43.164Z,22.30
2023-04-17T02:06:43.211Z,22.29
2023-04-17T02:07:43.261Z,22.29
2023-04-17T02:08:43.301Z,22.29
2023-04-17T02:09:43.366Z,22.29
2023-04-17T02:10:43.436Z,22.29
2023-04-17T02:11:43.499Z,22.29
2023-04-17T02:12:43.529Z,22.28
2023-04-17T02:13:43.607Z,22.29
2023-04-17T02:14:43.678Z,22.28
2023-04-17T02:15:43.787Z,22.28
2023-04-17T02:16:43.781Z,22.28
2023-04-17T02:17:43.911Z,22.29
2023-04-17T02:18:43.906Z,22.28
2023-04-17T02:19:43.973Z,22.28
2023-04-17T02:20:44.062Z,22.29
2023-04-17T02:21:44.126Z,22.29
2023-04-17T02:22:44.165Z,22.29
2023-04-17T02:23:44.230Z,22.29
2023-04-17T02:24:44.351Z,22.28
2023-04-17T02:25:44.348Z,22.28
2023-04-17T02:26:44.425Z,22.29
2023-04-17T02:27:44.470Z,22.29
2023-04-17T02:28:44.528Z,22.29
2023-04-17T02:29:44.588Z,22.28
2023-04-17T02:30:44.642Z,22.29
2023-04-17T02:31:44.777Z,22.29
2023-04-17T02:32:44.787Z,22.28
2023-04-17T02:33:44.778Z,22.29
2023-04-17T02:34:44.859Z,22.29
2023-04-17T02:35:44.948Z,22.29
2023-04-17T02:36:44.982Z,22.29
2023-04-17T02:37:45.048Z,22.28
2023-04-17T02:38:45.120Z,22.27
2023-04-17T02:39:45.158Z,22.28
2023-04-17T02:40:45.205Z,22.28
2023-04-17T02:41:45.309Z,22.28
2023-04-17T02:42:45.404Z,22.27
2023-04-17T02:43:45.435Z,22.28
2023-04-17T02:44:45.461Z,22.28
2023-04-17T02:45:45.539Z,22.28
2023-04-17T02:46:45.635Z,22.29
2023-04-17T02:47:45.674Z,22.28
2023-04-17T02:48:45.734Z,22.27
2023-04-17T02:49:45.758Z,22.27
2023-04-17T02:50:45.851Z,22.27
2023-04-17T02:51:45.906Z,22.27
2023-04-17T02:52:45.967Z,22.26
2023-04-17T02:53:46.026Z,22.26
2023-04-17T02:54:46.085Z,22.25
2023-04-17T02:55:46.151Z,22.25
2023-04-17T02:56:46.235Z,22.25
2023-04-17T02:57:46.273Z,22.24
2023-04-17T02:58:46.894Z,22.24
2023-04-17T02:59:46.411Z,22.24
2023-04-17T03:00:46.534Z,22.24
2023-04-17T03:01:46.522Z,22.24
2023-04-17T03:02:46.775Z,22.24
2023-04-17T03:03:46.815Z,22.24
2023-04-17T03:04:46.733Z,22.24
2023-04-17T03:05:46.795Z,22.24
2023-04-17T03:06:46.849Z,22.24
2023-04-17T03:07:46.913Z,22.24
2023-04-17T03:08:46.970Z,22.24
2023-04-17T03:09:47.018Z,22.23
2023-04-17T03:10:47.112Z,22.23
2023-04-17T03:11:47.165Z,22.24
2023-04-17T03:12:47.228Z,22.23
2023-04-17T03:13:47.300Z,22.23
2023-04-17T03:14:47.352Z,22.23
2023-04-17T03:15:47.380Z,22.24
2023-04-17T03:16:47.502Z,22.24
2023-04-17T03:17:47.570Z,22.24
2023-04-17T03:18:47.601Z,22.24
2023-04-17T03:19:47.609Z,22.24
2023-04-17T03:20:47.696Z,22.25
2023-04-17T03:21:47.755Z,22.25
2023-04-17T03:22:47.822Z,22.25
2023-04-17T03:23:47.885Z,22.25
2023-04-17T03:24:47.955Z,22.25
2023-04-17T03:25:47.996Z,22.25
2023-04-17T03:26:48.037Z,22.25
2023-04-17T03:27:48.127Z,22.24
2023-04-17T03:28:48.181Z,22.25
2023-04-17T03:29:48.262Z,22.25
2023-04-17T03:30:48.311Z,22.24
2023-04-17T03:31:48.380Z,22.25
2023-04-17T03:32:48.452Z,22.26
2023-04-17T03:33:48.464Z,22.26
2023-04-17T03:34:48.534Z,22.25
2023-04-17T03:35:48.627Z,22.26
2023-04-17T03:36:48.667Z,22.26
2023-04-17T03:37:48.747Z,22.25
2023-04-17T03:38:48.762Z,22.25
2023-04-17T03:39:48.864Z,22.25
2023-04-17T03:40:49.438Z,22.25
2023-04-17T03:41:48.964Z,22.25
2023-04-17T03:42:48.998Z,22.25
2023-04-17T03:43:49.083Z,22.25
2023-04-17T03:44:49.156Z,22.26
2023-04-17T03:45:49.211Z,22.26
2023-04-17T03:46:49.257Z,22.25
2023-04-17T03:47:49.391Z,22.25
2023-04-17T03:48:49.408Z,22.27
2023-04-17T03:49:49.450Z,22.26
2023-04-17T03:50:49.535Z,22.26
2023-04-17T03:51:49.577Z,22.25
2023-04-17T03:52:49.636Z,22.27
2023-04-17T03:53:49.677Z,22.26
2023-04-17T03:54:49.726Z,22.26
2023-04-17T03:55:49.817Z,22.26
2023-04-17T03:56:49.861Z,22.27
2023-04-17T03:57:49.904Z,22.25
2023-04-17T03:58:50.000Z,22.25
2023-04-17T03:59:50.000Z,22.26
2023-04-17T04:00:50.084Z,22.27
2023-04-17T04:01:50.144Z,22.27
2023-04-17T04:02:50.362Z,22.26
2023-04-17T04:03:50.382Z,22.27
2023-04-17T04:04:50.457Z,22.27
2023-04-17T04:05:50.405Z,22.27
2023-04-17T04:06:50.443Z,22.27
2023-04-17T04:07:50.532Z,22.26
2023-04-17T04:08:50.558Z,22.26
2023-04-17T04:09:50.668Z,22.27
2023-04-17T04:10:50.747Z,22.27
2023-04-17T04:11:50.821Z,22.27
2023-04-17T04:12:50.832Z,22.26
2023-04-17T04:13:50.894Z,22.26
2023-04-17T04:14:50.991Z,22.25
2023-04-17T04:15:51.065Z,22.25
2023-04-17T04:16:51.069Z,22.25
2023-04-17T04:17:51.128Z,22.25
2023-04-17T04:18:51.189Z,22.25
2023-04-17T04:19:51.267Z,22.25
2023-04-17T04:20:51.290Z,22.24
2023-04-17T04:21:51.362Z,22.24
2023-04-17T04:22:51.410Z,22.25
2023-04-17T04:23:51.475Z,22.24
2023-04-17T04:24:51.552Z,22.25
2023-04-17T04:25:51.645Z,22.24
2023-04-17T04:26:51.693Z,22.24
2023-04-17T04:27:51.740Z,22.25
2023-04-17T04:28:51.779Z,22.25
2023-04-17T04:29:51.861Z,22.25
2023-04-17T04:30:51.912Z,22.25
2023-04-17T04:31:52.035Z,22.25
2023-04-17T04:32:52.053Z,22.24
2023-04-17T04:33:52.115Z,22.24
2023-04-17T04:34:52.167Z,22.24
2023-04-17T04:35:52.222Z,22.24
2023-04-17T04:36:52.279Z,22.23
2023-04-17T04:37:52.370Z,22.24
2023-04-17T04:38:52.436Z,22.23
2023-04-17T04:39:52.490Z,22.23
2023-04-17T04:40:52.817Z,22.24
2023-04-17T04:41:52.615Z,22.23
2023-04-17T04:42:52.659Z,22.23
2023-04-17T04:43:52.713Z,22.24
2023-04-17T04:44:52.774Z,22.23
2023-04-17T04:45:52.844Z,22.23
2023-04-17T04:46:52.941Z,22.22
2023-04-17T04:47:53.035Z,22.23
2023-04-17T04:48:53.009Z,22.22
2023-04-17T04:49:53.104Z,22.22
2023-04-17T04:50:53.161Z,22.22
2023-04-17T04:51:53.215Z,22.22
2023-04-17T04:52:53.296Z,22.22
2023-04-17T04:53:53.331Z,22.21
2023-04-17T04:54:53.404Z,22.21
2023-04-17T04:55:53.443Z,22.21
2023-04-17T04:56:53.532Z,22.21
2023-04-17T04:57:53.567Z,22.22
2023-04-17T04:58:53.635Z,22.22
2023-04-17T04:59:53.715Z,22.21
2023-04-17T05:00:53.821Z,22.22
2023-04-17T05:01:53.849Z,22.22
2023-04-17T05:02:54.002Z,22.22
2023-04-17T05:03:54.144Z,22.22
2023-04-17T05:04:54.062Z,22.23
2023-04-17T05:05:54.077Z,22.23
2023-04-17T05:06:54.134Z,22.23
2023-04-17T05:07:54.201Z,22.23
2023-04-17T05:08:54.254Z,22.23
2023-04-17T05:09:54.327Z,22.23
2023-04-17T05:10:54.401Z,22.23
2023-04-17T05:11:54.429Z,22.22
2023-04-17T05:12:54.507Z,22.22
2023-04-17T05:13:54.553Z,22.22
2023-04-17T05:14:54.601Z,22.22
2023-04-17T05:15:54.750Z,22.22
2023-04-17T05:16:54.736Z,22.23
2023-04-17T05:17:54.832Z,22.23
2023-04-17T05:18:54.904Z,22.22
2023-04-17T05:19:54.938Z,22.22
2023-04-17T05:20:55.006Z,22.22
2023-04-17T05:21:55.045Z,22.23
2023-04-17T05:22:55.120Z,22.22
2023-04-17T05:23:55.183Z,22.24
2023-04-17T05:24:55.255Z,22.23
2023-04-17T05:25:55.292Z,22.23
2023-04-17T05:26:55.363Z,22.23
2023-04-17T05:27:55.434Z,22.23
2023-04-17T05:28:55.475Z,22.23
2023-04-17T05:29:55.545Z,22.23
2023-04-17T05:30:55.647Z,22.24
2023-04-17T05:31:55.718Z,22.24
2023-04-17T05:32:55.776Z,22.25
2023-04-17T05:33:55.819Z,22.24
2023-04-17T05:34:55.879Z,22.24
2023-04-17T05:35:56.386Z,22.24
2023-04-17T05:36:55.997Z,22.25
2023-04-17T05:37:56.076Z,22.26
2023-04-17T05:38:56.109Z,22.27
2023-04-17T05:39:56.167Z,22.29
2023-04-17T05:40:56.476Z,22.31
2023-04-17T05:41:56.314Z,22.33
2023-04-17T05:42:56.319Z,22.34
2023-04-17T05:43:56.358Z,22.35
2023-04-17T05:44:56.420Z,22.38
2023-04-17T05:45:56.495Z,22.39
2023-04-17T05:46:56.974Z,22.41
2023-04-17T05:47:56.583Z,22.43
2023-04-17T05:48:56.595Z,22.44
2023-04-17T05:49:56.612Z,22.45
2023-04-17T05:50:56.714Z,22.47
2023-04-17T05:51:56.691Z,22.49
2023-04-17T05:52:56.737Z,22.50
2023-04-17T05:53:56.763Z,22.52
2023-04-17T05:54:56.779Z,22.55
2023-04-17T05:55:56.779Z,22.57
2023-04-17T05:56:56.967Z,22.59
2023-04-17T05:57:58.256Z,22.62
2023-04-17T05:58:56.836Z,22.64
2023-04-17T05:59:56.838Z,22.64
2023-04-17T06:00:56.897Z,22.67
2023-04-17T06:01:56.947Z,22.69
2023-04-17T06:02:57.046Z,22.71
2023-04-17T06:03:57.217Z,22.74
2023-04-17T06:04:57.093Z,22.78
2023-04-17T06:05:56.905Z,22.81
2023-04-17T06:06:56.892Z,22.83
2023-04-17T06:07:56.900Z,22.85
2023-04-17T06:08:56.915Z,22.88
2023-04-17T06:09:56.954Z,22.90
2023-04-17T06:10:56.921Z,22.92
2023-04-17T06:12:04.019Z,22.93
2023-04-17T06:12:56.956Z,22.95
2023-04-17T06:13:56.920Z,22.96
2023-04-17T06:14:56.918Z,22.98
2023-04-17T06:15:56.923Z,23.00
2023-04-17T06:16:57.048Z,23.02
2023-04-17T06:17:56.982Z,23.03
2023-04-17T06:18:56.914Z,23.05
2023-04-17T06:19:56.903Z,23.06
2023-04-17T06:20:56.874Z,23.09
2023-04-17T06:22:34.751Z,23.10
2023-04-17T06:23:34.745Z,23.13
2023-04-17T06:24:34.750Z,23.14
2023-04-17T06:25:35.732Z,23.14
2023-04-17T06:26:34.708Z,23.17
2023-04-17T06:27:36.790Z,23.19
2023-04-17T06:28:34.875Z,23.20
2023-04-17T06:29:34.965Z,23.20
2023-04-17T06:30:35.059Z,23.22
2023-04-17T06:31:35.072Z,23.24
2023-04-17T06:32:35.185Z,23.25
2023-04-17T06:33:35.108Z,23.27
2023-04-17T06:34:35.158Z,23.27
2023-04-17T06:35:35.205Z,23.29
2023-04-17T06:36:35.285Z,23.30
2023-04-17T06:37:35.387Z,23.31
2023-04-17T06:38:35.404Z,23.32
2023-04-17T06:39:35.470Z,23.33
2023-04-17T06:40:35.546Z,23.34
2023-04-17T06:41:35.943Z,23.36
2023-04-17T06:42:35.758Z,23.36
2023-04-17T06:43:35.731Z,23.38
2023-04-17T06:44:35.747Z,23.38
2023-04-17T06:45:35.840Z,23.40
2023-04-17T06:46:35.961Z,23.40
2023-04-17T06:47:35.956Z,23.40
2023-04-17T06:48:35.956Z,23.41
2023-04-17T06:49:36.019Z,23.39
2023-04-17T06:50:36.040Z,23.40
2023-04-17T06:51:36.436Z,23.42
2023-04-17T06:52:36.161Z,23.42
2023-04-17T06:53:36.149Z,23.42
2023-04-17T06:54:36.164Z,23.44
2023-04-17T06:55:36.118Z,23.45
2023-04-17T06:56:36.154Z,23.47
2023-04-17T06:57:36.118Z,23.47
2023-04-17T06:58:36.114Z,23.47
2023-04-17T06:59:36.110Z,23.48
2023-04-17T07:00:36.100Z,23.48
2023-04-17T07:01:36.088Z,23.49
2023-04-17T07:02:36.295Z,23.51
2023-04-17T07:03:36.166Z,23.50
2023-04-17T07:04:36.173Z,23.51
2023-04-17T07:05:36.054Z,23.51
2023-04-17T07:06:36.125Z,23.52
2023-04-17T07:07:36.484Z,23.53
2023-04-17T07:08:36.177Z,23.55
2023-04-17T07:09:36.222Z,23.55
2023-04-17T07:10:36.253Z,23.56
2023-04-17T07:11:36.298Z,23.57
2023-04-17T07:12:36.373Z,23.57
2023-04-17T07:13:36.410Z,23.57
2023-04-17T07:14:36.422Z,23.57
2023-04-17T07:15:36.451Z,23.58
2023-04-17T07:16:36.565Z,23.58
2023-04-17T07:17:36.633Z,23.61
2023-04-17T07:18:36.591Z,23.61
2023-04-17T07:19:36.592Z,23.62
2023-04-17T07:20:36.639Z,23.63
2023-04-17T07:21:36.664Z,23.64
2023-04-17T07:22:36.682Z,23.65
2023-04-17T07:23:36.732Z,23.65
2023-04-17T07:24:36.767Z,23.64
2023-04-17T07:25:36.807Z,23.65
2023-04-17T07:26:36.821Z,23.64
2023-04-17T07:27:36.844Z,23.65
2023-04-17T07:28:36.872Z,23.66
2023-04-17T07:29:36.905Z,23.67
2023-04-17T07:30:36.919Z,23.67
2023-04-17T07:31:36.983Z,23.68
2023-04-17T07:32:37.002Z,23.68
2023-04-17T07:33:40.077Z,23.68
2023-04-17T07:34:36.986Z,23.69
2023-04-17T07:35:36.961Z,23.72
2023-04-17T07:36:37.127Z,23.73
2023-04-17T07:37:36.949Z,23.74
2023-04-17T07:38:38.624Z,23.75
2023-04-17T07:39:36.941Z,23.76
2023-04-17T07:40:36.938Z,23.77
2023-04-17T07:41:36.929Z,23.78
2023-04-17T07:42:36.960Z,23.79
2023-04-17T07:43:36.915Z,23.79
2023-04-17T07:44:36.950Z,23.81
2023-04-17T07:45:38.134Z,23.85
2023-04-17T07:46:37.007Z,23.87
2023-04-17T07:47:37.022Z,23.90
2023-04-17T07:48:36.900Z,23.92
2023-04-17T07:49:36.874Z,23.95
2023-04-17T07:50:36.870Z,23.97
2023-04-17T07:51:36.859Z,23.99
2023-04-17T07:52:36.872Z,24.00
2023-04-17T07:53:37.953Z,24.02
2023-04-17T07:54:36.852Z,24.02
2023-04-17T07:55:36.849Z,24.04
2023-04-17T07:56:36.820Z,24.06
2023-04-17T07:57:36.838Z,24.07
2023-04-17T07:58:36.863Z,24.08
2023-04-17T07:59:36.824Z,24.09
2023-04-17T08:00:36.804Z,24.11
2023-04-17T08:01:36.789Z,24.11
2023-04-17T08:02:36.923Z,24.13
2023-04-17T08:03:37.026Z,24.14
2023-04-17T08:04:36.968Z,24.15
2023-04-17T08:05:36.772Z,24.15
2023-04-17T08:06:36.778Z,24.16
2023-04-17T08:07:36.774Z,24.17
2023-04-17T08:08:36.748Z,24.20
2023-04-17T08:09:36.730Z,24.20
2023-04-17T08:10:36.720Z,24.22
2023-04-17T08:11:49.433Z,24.23
2023-04-17T08:12:37.953Z,24.26
2023-04-17T08:13:36.714Z,24.27
2023-04-17T08:14:36.721Z,24.29
2023-04-17T08:15:39.029Z,24.30
2023-04-17T08:16:36.760Z,24.31
2023-04-17T08:17:36.778Z,24.32
2023-04-17T08:18:36.684Z,24.32
2023-04-17T08:19:36.693Z,24.33
2023-04-17T08:20:36.689Z,24.33
2023-04-17T08:21:36.667Z,24.34
2023-04-17T08:22:36.674Z,24.35
2023-04-17T08:23:36.654Z,24.37
2023-04-17T08:24:36.682Z,24.39
2023-04-17T08:25:36.659Z,24.40
2023-04-17T08:26:36.662Z,24.41
2023-04-17T08:27:36.655Z,24.43
2023-04-17T08:28:36.622Z,24.43
2023-04-17T08:29:36.625Z,24.44
2023-04-17T08:30:36.689Z,24.45
2023-04-17T08:31:36.601Z,24.44
2023-04-17T08:32:36.676Z,24.46
2023-04-17T08:33:36.588Z,24.48
2023-04-17T08:34:36.591Z,24.49
2023-04-17T08:35:36.601Z,24.52
2023-04-17T08:36:36.583Z,24.54
2023-04-17T08:37:36.953Z,24.56
2023-04-17T08:38:36.591Z,24.57
2023-04-17T08:39:36.548Z,24.58
2023-04-17T08:40:36.537Z,24.59
2023-04-17T08:41:36.554Z,24.60
2023-04-17T08:42:36.515Z,24.60
2023-04-17T08:43:36.532Z,24.62
2023-04-17T08:44:36.512Z,24.63
2023-04-17T08:45:36.526Z,24.62
2023-04-17T08:46:36.574Z,24.62
2023-04-17T08:47:37.069Z,24.64
2023-04-17T08:48:36.484Z,24.66
2023-04-17T08:49:36.483Z,24.67
2023-04-17T08:50:36.481Z,24.68
2023-04-17T08:51:36.541Z,24.69
2023-04-17T08:52:36.465Z,24.69
2023-04-17T08:53:36.450Z,24.69
2023-04-17T08:54:36.458Z,24.69
2023-04-17T08:55:36.427Z,24.69
2023-04-17T08:56:36.407Z,24.68
2023-04-17T08:57:36.446Z,24.67
2023-04-17T08:58:36.437Z,24.68
2023-04-17T08:59:36.405Z,24.67
2023-04-17T09:00:36.429Z,24.66
2023-04-17T09:01:36.501Z,24.64
2023-04-17T09:02:36.542Z,24.65
2023-04-17T09:03:36.488Z,24.64
2023-04-17T09:04:36.465Z,24.62
2023-04-17T09:05:36.372Z,24.62
2023-04-17T09:06:36.397Z,24.61
2023-04-17T09:07:36.369Z,24.60
2023-04-17T09:08:36.333Z,24.60
2023-04-17T09:09:36.332Z,24.60
2023-04-17T09:10:36.316Z,24.61
2023-04-17T09:11:36.311Z,24.61
2023-04-17T09:12:36.486Z,24.61
2023-04-17T09:13:36.312Z,24.60
2023-04-17T09:14:36.312Z,24.60
2023-04-17T09:15:36.430Z,24.60
2023-04-17T09:16:36.311Z,24.61
2023-04-17T09:17:36.288Z,24.59
2023-04-17T09:18:36.284Z,24.59
2023-04-17T09:19:36.288Z,24.59
2023-04-17T09:20:36.277Z,24.58
2023-04-17T09:21:36.259Z,24.58
2023-04-17T09:22:36.236Z,24.57
2023-04-17T09:23:36.238Z,24.56
2023-04-17T09:24:36.257Z,24.55
2023-04-17T09:25:36.220Z,24.54
2023-04-17T09:26:36.276Z,24.55
2023-04-17T09:27:36.341Z,24.55
2023-04-17T09:28:36.363Z,24.54
2023-04-17T09:29:36.459Z,24.54
2023-04-17T09:30:36.495Z,24.54
2023-04-17T09:31:36.556Z,24.53
2023-04-17T09:32:36.603Z,24.52
2023-04-17T09:33:36.619Z,24.52
2023-04-17T09:34:36.683Z,24.51
2023-04-17T09:35:39.609Z,24.50
2023-04-17T09:36:36.682Z,24.49
2023-04-17T09:37:36.694Z,24.49
2023-04-17T09:38:36.695Z,24.49
2023-04-17T09:39:36.668Z,24.48
2023-04-17T09:40:36.666Z,24.47
2023-04-17T09:41:36.701Z,24.44
2023-04-17T09:42:37.009Z,24.44
2023-04-17T09:43:36.671Z,24.42
2023-04-17T09:44:36.690Z,24.43
2023-04-17T09:45:36.669Z,24.42
2023-04-17T09:46:36.789Z,24.40
2023-04-17T09:47:37.080Z,24.40
2023-04-17T09:48:36.626Z,24.42
2023-04-17T09:49:36.633Z,24.43
2023-04-17T09:50:38.475Z,24.45
2023-04-17T09:51:36.587Z,24.46
2023-04-17T09:52:36.597Z,24.48
2023-04-17T09:53:36.570Z,24.49
2023-04-17T09:54:36.581Z,24.51
2023-04-17T09:55:38.498Z,24.53
2023-04-17T09:56:36.632Z,24.55
2023-04-17T09:57:36.687Z,24.57
2023-04-17T09:58:36.733Z,24.59
2023-04-17T09:59:36.728Z,24.61
2023-04-17T10:00:36.863Z,24.62
2023-04-17T10:01:36.800Z,24.65
2023-04-17T10:02:36.934Z,24.66
2023-04-17T10:03:37.776Z,24.68
2023-04-17T10:04:36.839Z,24.69
2023-04-17T10:05:36.848Z,24.71
2023-04-17T10:06:36.833Z,24.72
2023-04-17T10:07:36.881Z,24.72
2023-04-17T10:08:36.824Z,24.75
2023-04-17T10:09:36.872Z,24.75
2023-04-17T10:10:36.850Z,24.76
2023-04-17T10:11:36.886Z,24.79
2023-04-17T10:12:36.878Z,24.79
2023-04-17T10:13:36.861Z,24.80
2023-04-17T10:14:36.887Z,24.81
2023-04-17T10:15:36.861Z,24.83
2023-04-17T10:16:36.903Z,24.83
2023-04-17T10:17:37.084Z,24.83
2023-04-17T10:18:36.863Z,24.84
2023-04-17T10:19:36.905Z,24.85
2023-04-17T10:20:36.866Z,24.86
2023-04-17T10:21:36.881Z,24.87
2023-04-17T10:22:36.880Z,24.87
2023-04-17T10:23:36.923Z,24.88
2023-04-17T10:24:36.871Z,24.89
2023-04-17T10:25:36.908Z,24.90
2023-04-17T10:26:36.924Z,24.91
2023-04-17T10:27:36.943Z,24.92
2023-04-17T10:28:36.994Z,24.94
2023-04-17T10:29:36.976Z,24.94
2023-04-17T10:30:37.005Z,24.94
2023-04-17T10:31:37.075Z,24.94
2023-04-17T10:32:37.069Z,24.96
2023-04-17T10:33:37.029Z,24.97
2023-04-17T10:34:37.052Z,24.97
2023-04-17T10:35:37.082Z,24.97
2023-04-17T10:36:37.071Z,24.97
2023-04-17T10:37:37.525Z,24.98
2023-04-17T10:38:37.090Z,24.97
2023-04-17T10:39:37.107Z,24.99
2023-04-17T10:40:37.094Z,25.01
2023-04-17T10:41:37.111Z,25.02
2023-04-17T10:42:37.539Z,25.03
2023-04-17T10:43:37.097Z,25.04
2023-04-17T10:44:37.096Z,25.03
2023-04-17T10:45:37.119Z,25.06
2023-04-17T10:46:37.110Z,25.06
2023-04-17T10:47:37.155Z,25.06
2023-04-17T10:48:37.168Z,25.08
2023-04-17T10:49:37.196Z,25.07
2023-04-17T10:50:37.154Z,25.08
2023-04-17T10:51:37.165Z,25.08
2023-04-17T10:52:37.171Z,25.08
2023-04-17T10:53:37.182Z,25.10
2023-04-17T10:54:37.229Z,25.09
2023-04-17T10:55:37.240Z,25.09
2023-04-17T10:56:37.286Z,25.10
2023-04-17T10:57:38.317Z,25.12
2023-04-17T10:58:37.346Z,25.12
2023-04-17T10:59:37.331Z,25.12
2023-04-17T11:00:37.331Z,25.12
2023-04-17T11:01:37.396Z,25.12
2023-04-17T11:02:37.468Z,25.12
2023-04-17T11:03:37.463Z,25.13
2023-04-17T11:04:37.515Z,25.13
2023-04-17T11:05:37.463Z,25.15
2023-04-17T11:06:37.487Z,25.16
2023-04-17T11:07:37.536Z,25.16
2023-04-17T11:08:37.578Z,25.17
2023-04-17T11:09:37.615Z,25.17
2023-04-17T11:10:37.710Z,25.17
2023-04-17T11:11:44.141Z,25.16
2023-04-17T11:12:38.785Z,25.17
2023-04-17T11:13:37.738Z,25.19
2023-04-17T11:14:37.737Z,25.19
2023-04-17T11:15:37.756Z,25.20
2023-04-17T11:16:37.757Z,25.21
2023-04-17T11:17:37.825Z,25.21
2023-04-17T11:18:37.712Z,25.21
2023-04-17T11:19:37.735Z,25.21
2023-04-17T11:20:37.743Z,25.23
2023-04-17T11:21:37.754Z,25.22
2023-04-17T11:22:37.824Z,25.24
2023-04-17T11:23:37.880Z,25.24
2023-04-17T11:24:37.905Z,25.24
2023-04-17T11:25:37.986Z,25.25
2023-04-17T11:26:38.041Z,25.25
2023-04-17T11:27:38.094Z,25.26
2023-04-17T11:28:38.154Z,25.27
2023-04-17T11:29:38.183Z,25.27
2023-04-17T11:30:38.284Z,25.28
2023-04-17T11:31:38.313Z,25.28
2023-04-17T11:32:38.567Z,25.29
2023-04-17T11:33:38.416Z,25.28
2023-04-17T11:34:38.683Z,25.30
2023-04-17T11:35:38.500Z,25.31
2023-04-17T11:36:38.642Z,25.31
2023-04-17T11:37:38.665Z,25.30
2023-04-17T11:38:38.677Z,25.29
2023-04-17T11:39:38.755Z,25.28
2023-04-17T11:40:38.817Z,25.29
2023-04-17T11:41:38.854Z,25.27
2023-04-17T11:42:38.918Z,25.26
2023-04-17T11:43:38.918Z,25.25
2023-04-17T11:44:38.968Z,25.25
2023-04-17T11:45:38.998Z,25.25
2023-04-17T11:46:39.030Z,25.24
2023-04-17T11:47:39.120Z,25.24
2023-04-17T11:48:38.985Z,25.24
2023-04-17T11:49:39.047Z,25.22
2023-04-17T11:50:39.007Z,25.21
2023-04-17T11:51:39.001Z,25.19
2023-04-17T11:52:38.967Z,25.17
2023-04-17T11:53:38.997Z,25.14
2023-04-17T11:54:39.029Z,25.13
2023-04-17T11:55:38.998Z,25.13
2023-04-17T11:56:38.973Z,25.12
2023-04-17T11:57:38.974Z,25.11
2023-04-17T11:58:38.994Z,25.12
2023-04-17T11:59:38.974Z,25.11
2023-04-17T12:00:39.012Z,25.10
2023-04-17T12:01:39.008Z,25.09
2023-04-17T12:02:39.118Z,25.09
2023-04-17T12:03:39.173Z,25.08
2023-04-17T12:04:39.194Z,25.07
2023-04-17T12:05:39.125Z,25.06
2023-04-17T12:06:39.051Z,25.05
2023-04-17T12:07:39.051Z,25.05
2023-04-17T12:08:39.087Z,25.04
2023-04-17T12:09:39.073Z,25.03
2023-04-17T12:10:39.110Z,25.02
2023-04-17T12:11:39.084Z,25.02
2023-04-17T12:12:39.121Z,25.01
2023-04-17T12:13:39.161Z,25.00
2023-04-17T12:14:39.133Z,24.99
2023-04-17T12:15:39.193Z,24.98
2023-04-17T12:16:39.335Z,24.97
2023-04-17T12:17:39.265Z,24.97
2023-04-17T12:18:39.253Z,24.96
2023-04-17T12:19:39.228Z,24.95
2023-04-17T12:20:39.275Z,24.95
2023-04-17T12:21:39.312Z,24.94
2023-04-17T12:22:39.307Z,24.93
2023-04-17T12:23:39.320Z,24.93
2023-04-17T12:24:39.328Z,24.89
2023-04-17T12:25:39.388Z,24.88
2023-04-17T12:26:39.378Z,24.87
2023-04-17T12:27:39.395Z,24.86
2023-04-17T12:28:39.442Z,24.85
2023-04-17T12:30:39.441Z,24.83
2023-04-17T12:31:39.487Z,24.81
2023-04-17T12:32:39.534Z,24.80
2023-04-17T12:33:39.430Z,24.81
2023-04-17T12:34:39.445Z,24.80
2023-04-17T12:35:39.378Z,24.79
2023-04-17T12:36:39.426Z,24.79
2023-04-17T12:37:39.410Z,24.77
2023-04-17T12:38:39.395Z,24.76
2023-04-17T12:39:39.382Z,24.77
2023-04-17T12:40:39.366Z,24.76
2023-04-17T12:41:39.362Z,24.75
2023-04-17T12:42:46.442Z,24.74
2023-04-17T12:43:40.354Z,24.73
2023-04-17T12:44:39.715Z,24.72
2023-04-17T12:45:41.078Z,24.73
2023-04-17T12:46:39.330Z,24.72
2023-04-17T12:47:39.351Z,24.71
2023-04-17T12:48:39.327Z,24.70
2023-04-17T12:49:39.310Z,24.69
2023-04-17T12:50:39.301Z,24.69
2023-04-17T12:51:39.279Z,24.68
2023-04-17T12:52:39.302Z,24.68
2023-04-17T12:53:39.320Z,24.68
2023-04-17T12:54:39.287Z,24.66